createdAt,value
2023-05-13T00:01:47.544Z,9.73
2023-05-13T00:04:36.831Z,10.13
2023-05-13T00:07:23.777Z,10.05
2023-05-13T00:10:11.731Z,9.40
2023-05-13T00:12:58.124Z,10.10
2023-05-13T00:15:44.531Z,10.90
2023-05-13T00:18:31.031Z,12.57
2023-05-13T00:21:18.836Z,9.32
2023-05-13T00:24:06.899Z,9.95
2023-05-13T00:26:53.675Z,11.75
2023-05-13T00:29:40.061Z,10.82
2023-05-13T00:32:26.769Z,10.43
2023-05-13T00:35:13.311Z,12.57
2023-05-13T00:38:01.111Z,12.40
2023-05-13T00:40:48.013Z,10.55
2023-05-13T00:43:34.839Z,11.50
2023-05-13T00:46:21.386Z,10.98
2023-05-13T00:49:08.401Z,10.60
2023-05-13T00:51:55.730Z,12.70
2023-05-13T00:54:43.572Z,12.63
2023-05-13T00:57:30.723Z,10.90
2023-05-13T01:00:17.848Z,10.43
2023-05-13T01:03:09.848Z,11.68
2023-05-13T01:06:05.262Z,12.13
2023-05-13T01:08:59.635Z,10.18
2023-05-13T01:11:51.055Z,11.10
2023-05-13T01:14:49.704Z,16.90
2023-05-13T01:17:45.328Z,13.18
2023-05-13T01:20:32.523Z,13.43
2023-05-13T01:23:20.719Z,12.15
2023-05-13T01:26:07.292Z,12.65
2023-05-13T01:28:54.010Z,11.45
2023-05-13T01:31:43.512Z,9.40
2023-05-13T01:34:31.606Z,10.50
2023-05-13T01:37:18.130Z,12.27
2023-05-13T01:40:17.081Z,15.48
2023-05-13T01:43:11.292Z,11.98
2023-05-13T01:46:00.298Z,13.82
2023-05-13T01:48:46.957Z,12.20
2023-05-13T01:51:33.519Z,12.32
2023-05-13T01:54:20.070Z,10.43
2023-05-13T01:57:07.734Z,11.52
2023-05-13T01:59:54.155Z,14.50
2023-05-13T02:02:40.848Z,13.20
2023-05-13T02:05:27.642Z,10.18
2023-05-13T02:08:14.133Z,11.75
2023-05-13T02:11:01.648Z,12.40
2023-05-13T02:13:49.371Z,14.23
2023-05-13T02:16:36.162Z,14.88
2023-05-13T02:19:22.690Z,17.67
2023-05-13T02:22:09.036Z,11.60
2023-05-13T02:24:55.628Z,13.75
2023-05-13T02:27:42.047Z,12.13
2023-05-13T02:30:29.733Z,16.73
2023-05-13T02:33:16.431Z,15.32
2023-05-13T02:36:02.912Z,12.52
2023-05-13T02:38:49.286Z,9.95
2023-05-13T02:41:36.426Z,12.70
2023-05-13T02:44:23.129Z,14.07
2023-05-13T02:47:10.882Z,17.02
2023-05-13T02:49:58.137Z,14.60
2023-05-13T02:52:44.704Z,12.82
2023-05-13T02:55:31.189Z,17.38
2023-05-13T02:58:19.402Z,13.73
2023-05-13T03:01:05.881Z,14.95
2023-05-13T03:03:53.730Z,12.25
2023-05-13T03:06:40.296Z,11.93
2023-05-13T03:09:26.688Z,12.93
2023-05-13T03:12:13.227Z,13.40
2023-05-13T03:14:59.912Z,11.37
2023-05-13T03:17:46.370Z,12.95
2023-05-13T03:20:34.303Z,13.10
2023-05-13T03:23:20.876Z,12.57
2023-05-13T03:26:07.281Z,14.00
2023-05-13T03:28:54.082Z,10.90
2023-05-13T03:31:40.506Z,11.03
2023-05-13T03:34:26.939Z,15.27
2023-05-13T03:37:14.889Z,12.47
2023-05-13T03:40:02.140Z,14.47
2023-05-13T03:42:48.720Z,12.83
2023-05-13T03:45:35.125Z,12.77
2023-05-13T03:48:21.450Z,11.90
2023-05-13T03:51:07.996Z,12.00
2023-05-13T03:53:56.038Z,15.63
2023-05-13T03:56:42.720Z,11.47
2023-05-13T03:59:29.207Z,10.40
2023-05-13T04:02:15.593Z,12.40
2023-05-13T04:05:01.942Z,13.48
2023-05-13T04:07:48.229Z,16.17
2023-05-13T04:10:35.981Z,11.80
2023-05-13T04:13:22.320Z,12.40
2023-05-13T04:16:08.944Z,10.88
2023-05-13T04:18:55.861Z,15.30
2023-05-13T04:21:42.289Z,11.82
2023-05-13T04:24:28.702Z,12.97
2023-05-13T04:27:16.486Z,14.23
2023-05-13T04:30:02.981Z,11.00
2023-05-13T04:32:49.486Z,11.23
2023-05-13T04:35:35.897Z,11.05
2023-05-13T04:38:22.334Z,13.60
2023-05-13T04:41:08.837Z,10.25
2023-05-13T04:43:56.517Z,12.07
2023-05-13T04:46:44.884Z,16.77
2023-05-13T04:49:31.384Z,13.27
2023-05-13T04:52:19.471Z,10.45
2023-05-13T04:55:06.510Z,11.93
2023-05-13T04:57:53.112Z,9.65
2023-05-13T05:00:41.013Z,13.45
2023-05-13T05:03:27.481Z,12.38
2023-05-13T05:06:13.800Z,12.10
2023-05-13T05:09:00.678Z,11.52
2023-05-13T05:11:47.270Z,11.20
2023-05-13T05:14:33.682Z,10.80
2023-05-13T05:17:21.380Z,12.38
2023-05-13T05:20:09.559Z,13.98
2023-05-13T05:22:56.106Z,10.68
2023-05-13T05:25:42.465Z,10.70
2023-05-13T05:28:28.904Z,11.90
2023-05-13T05:31:15.364Z,11.75
2023-05-13T05:34:03.174Z,12.88
2023-05-13T05:36:50.006Z,15.13
2023-05-13T05:39:36.439Z,11.82
2023-05-13T05:42:22.840Z,13.35
2023-05-13T05:45:10.197Z,12.32
2023-05-13T05:47:57.780Z,12.35
2023-05-13T05:50:45.949Z,15.10
2023-05-13T05:53:32.735Z,11.45
2023-05-13T05:56:19.756Z,13.48
2023-05-13T05:59:06.506Z,13.63
2023-05-13T06:01:52.839Z,13.70
2023-05-13T06:04:41.654Z,12.18
2023-05-13T06:07:29.595Z,11.93
2023-05-13T06:10:16.484Z,13.18
2023-05-13T06:13:03.186Z,11.50
2023-05-13T06:15:50.021Z,10.25
2023-05-13T06:18:36.302Z,14.55
2023-05-13T06:21:22.672Z,11.30
2023-05-13T06:24:10.789Z,12.23
2023-05-13T06:26:57.055Z,10.57
2023-05-13T06:29:43.357Z,11.30
2023-05-13T06:32:29.993Z,9.23
2023-05-13T06:35:16.832Z,9.75
2023-05-13T06:38:03.487Z,10.60
2023-05-13T06:40:51.273Z,19.35
2023-05-13T06:43:38.756Z,14.02
2023-05-13T06:46:25.967Z,13.05
2023-05-13T06:49:12.414Z,11.02
2023-05-13T06:51:58.857Z,11.82
2023-05-13T06:54:45.461Z,9.25
2023-05-13T06:57:41.810Z,11.02
2023-05-13T07:00:29.568Z,9.32
2023-05-13T07:03:16.263Z,9.13
2023-05-13T07:06:03.121Z,9.65
2023-05-13T07:08:49.416Z,8.68
2023-05-13T07:11:35.939Z,9.18
2023-05-13T07:14:25.074Z,9.52
2023-05-13T07:17:11.428Z,11.52
2023-05-13T07:19:57.917Z,7.40
2023-05-13T07:22:44.886Z,8.18
2023-05-13T07:25:31.459Z,9.70
2023-05-13T07:28:18.036Z,11.07
2023-05-13T07:31:07.200Z,7.18
2023-05-13T07:33:53.894Z,7.78
2023-05-13T07:36:40.198Z,11.20
2023-05-13T07:39:26.720Z,7.25
2023-05-13T07:42:13.441Z,8.32
2023-05-13T07:45:02.793Z,6.95
2023-05-13T07:47:50.906Z,8.18
2023-05-13T07:50:37.691Z,6.75
2023-05-13T07:53:24.357Z,10.90
2023-05-13T07:56:10.636Z,7.65
2023-05-13T07:58:57.930Z,7.68
2023-05-13T08:01:44.297Z,10.27
2023-05-13T08:04:32.235Z,10.88
2023-05-13T08:07:18.981Z,8.13
2023-05-13T08:10:06.328Z,8.95
2023-05-13T08:12:57.543Z,8.20
2023-05-13T08:15:43.817Z,8.60
2023-05-13T08:18:30.653Z,11.63
2023-05-13T08:21:18.618Z,8.38
2023-05-13T08:24:05.341Z,8.20
2023-05-13T08:26:51.946Z,9.32
2023-05-13T08:29:38.673Z,8.00
2023-05-13T08:32:25.040Z,7.18
2023-05-13T08:35:11.515Z,6.20
2023-05-13T08:38:00.562Z,8.52
2023-05-13T08:40:47.489Z,7.20
2023-05-13T08:43:34.200Z,7.18
2023-05-13T08:46:22.391Z,7.50
2023-05-13T08:49:10.094Z,8.85
2023-05-13T08:51:56.589Z,8.70
2023-05-13T08:54:45.075Z,9.63
2023-05-13T08:57:31.931Z,7.13
2023-05-13T09:00:21.978Z,35.58
2023-05-13T09:03:08.523Z,9.77
2023-05-13T09:05:54.942Z,8.55
2023-05-13T09:08:41.609Z,7.82
2023-05-13T09:11:29.816Z,9.05
2023-05-13T09:14:20.302Z,7.88
2023-05-13T09:17:07.772Z,7.35
2023-05-13T09:19:54.518Z,7.82
2023-05-13T09:22:52.080Z,6.97
2023-05-13T09:25:39.663Z,8.25
2023-05-13T09:28:27.379Z,6.40
2023-05-13T09:31:14.103Z,9.38
2023-05-13T09:34:00.352Z,7.53
2023-05-13T09:36:46.873Z,9.90
2023-05-13T09:39:35.714Z,6.38
2023-05-13T09:42:23.132Z,6.28
2023-05-13T09:45:12.715Z,5.78
2023-05-13T09:47:59.291Z,7.05
2023-05-13T09:50:49.866Z,6.60
2023-05-13T09:53:36.448Z,7.47
2023-05-13T09:56:24.951Z,7.45
2023-05-13T09:59:11.713Z,6.07
2023-05-13T10:02:03.321Z,8.15
2023-05-13T10:04:49.948Z,5.88
2023-05-13T10:07:37.866Z,7.60
2023-05-13T10:10:25.907Z,4.75
2023-05-13T10:13:15.915Z,7.60
2023-05-13T10:16:02.372Z,6.60
2023-05-13T10:18:51.487Z,5.22
2023-05-13T10:21:39.545Z,5.47
2023-05-13T10:24:28.956Z,6.30
2023-05-13T10:27:15.900Z,7.95
2023-05-13T10:30:05.659Z,7.40
2023-05-13T10:32:52.912Z,6.90
2023-05-13T10:35:47.647Z,19.13
2023-05-13T10:38:50.603Z,10.35
2023-05-13T10:42:11.620Z,7.32
2023-05-13T10:44:59.655Z,8.57
2023-05-13T10:47:51.530Z,6.22
2023-05-13T10:50:40.571Z,5.97
2023-05-13T10:53:31.505Z,5.15
2023-05-13T10:56:21.822Z,7.13
2023-05-13T10:59:08.853Z,11.60
2023-05-13T11:01:55.215Z,7.20
2023-05-13T11:04:58.927Z,7.10
2023-05-13T11:07:56.230Z,6.55
2023-05-13T11:10:42.812Z,9.82
2023-05-13T11:13:38.209Z,6.93
2023-05-13T11:16:25.025Z,7.97
2023-05-13T11:19:21.439Z,9.55
2023-05-13T11:22:11.165Z,8.52
2023-05-13T11:25:10.890Z,5.97
2023-05-13T11:27:57.456Z,9.13
2023-05-13T11:30:55.021Z,7.82
2023-05-13T11:34:06.794Z,4.38
2023-05-13T11:36:58.506Z,7.55
2023-05-13T11:39:45.372Z,5.95
2023-05-13T11:42:33.143Z,7.72
2023-05-13T11:45:21.171Z,4.72
2023-05-13T11:48:20.047Z,7.82
2023-05-13T11:51:07.538Z,7.97
2023-05-13T11:54:01.048Z,7.28
2023-05-13T11:56:47.377Z,5.25
2023-05-13T11:59:45.243Z,6.53
2023-05-13T12:02:36.374Z,6.53
2023-05-13T12:05:23.331Z,8.63
2023-05-13T12:08:11.123Z,8.70
2023-05-13T12:10:57.813Z,4.47
2023-05-13T12:13:44.411Z,5.60
2023-05-13T12:16:32.675Z,6.55
2023-05-13T12:19:20.970Z,6.53
2023-05-13T12:22:09.014Z,5.93
2023-05-13T12:24:55.472Z,4.90
2023-05-13T12:27:41.815Z,7.53
2023-05-13T12:30:35.525Z,6.82
2023-05-13T12:33:25.486Z,6.05
2023-05-13T12:36:20.885Z,5.43
2023-05-13T12:39:09.879Z,7.35
2023-05-13T12:41:56.809Z,8.75
2023-05-13T12:44:44.814Z,4.40
2023-05-13T12:47:31.493Z,6.60
2023-05-13T12:50:20.079Z,7.82
2023-05-13T12:53:06.700Z,8.35
2023-05-13T12:55:53.261Z,5.95
2023-05-13T12:58:39.826Z,4.10
2023-05-13T13:01:26.302Z,7.00
2023-05-13T13:04:12.802Z,5.03
2023-05-13T13:07:00.946Z,9.35
2023-05-13T13:09:47.270Z,4.28
2023-05-13T13:12:33.630Z,6.32
2023-05-13T13:15:20.256Z,7.75
2023-05-13T13:18:07.187Z,6.10
2023-05-13T13:20:54.034Z,7.90
2023-05-13T13:23:42.228Z,3.92
2023-05-13T13:26:33.012Z,4.25
2023-05-13T13:29:19.703Z,7.70
2023-05-13T13:32:06.862Z,3.88
2023-05-13T13:34:53.264Z,5.05
2023-05-13T13:37:40.387Z,8.13
2023-05-13T13:40:28.442Z,5.13
2023-05-13T13:43:15.165Z,4.13
2023-05-13T13:46:01.788Z,4.22
2023-05-13T13:48:48.186Z,3.80
2023-05-13T13:51:34.554Z,4.03
2023-05-13T13:54:21.323Z,6.78
2023-05-13T13:57:08.996Z,4.75
2023-05-13T13:59:55.412Z,4.28
2023-05-13T14:02:42.007Z,6.28
2023-05-13T14:05:28.889Z,4.47
2023-05-13T14:08:15.697Z,4.38
2023-05-13T14:11:02.085Z,4.93
2023-05-13T14:13:49.783Z,3.60
2023-05-13T14:16:36.740Z,3.85
2023-05-13T14:19:24.067Z,6.75
2023-05-13T14:22:10.320Z,3.63
2023-05-13T14:24:56.676Z,4.18
2023-05-13T14:27:43.445Z,5.55
2023-05-13T14:30:31.358Z,8.23
2023-05-13T14:33:17.827Z,4.28
2023-05-13T14:36:04.478Z,3.35
2023-05-13T14:38:51.100Z,3.20
2023-05-13T14:41:37.584Z,3.50
2023-05-13T14:44:24.072Z,4.22
2023-05-13T14:47:11.869Z,3.30
2023-05-13T14:49:58.498Z,4.45
2023-05-13T14:52:44.938Z,4.53
2023-05-13T14:55:31.328Z,4.70
2023-05-13T14:58:18.284Z,5.22
2023-05-13T15:01:04.658Z,3.88
2023-05-13T15:03:52.160Z,4.10
2023-05-13T15:06:39.523Z,4.15
2023-05-13T15:09:26.021Z,5.22
2023-05-13T15:12:12.409Z,4.55
2023-05-13T15:14:59.780Z,5.25
2023-05-13T15:17:46.294Z,5.85
2023-05-13T15:20:34.604Z,4.18
2023-05-13T15:23:20.844Z,6.55
2023-05-13T15:26:07.356Z,4.97
2023-05-13T15:28:53.688Z,4.03
2023-05-13T15:31:39.929Z,4.47
2023-05-13T15:34:26.474Z,6.07
2023-05-13T15:37:14.188Z,6.82
2023-05-13T15:40:00.932Z,5.78
2023-05-13T15:42:48.266Z,3.83
2023-05-13T15:45:35.309Z,4.75
2023-05-13T15:48:22.042Z,5.30
2023-05-13T15:51:08.761Z,4.45
2023-05-13T15:53:56.683Z,3.70
2023-05-13T15:56:42.967Z,7.25
2023-05-13T15:59:29.572Z,4.30
2023-05-13T16:02:18.233Z,4.82
2023-05-13T16:05:04.861Z,5.72
2023-05-13T16:07:51.352Z,3.67
2023-05-13T16:10:39.118Z,5.82
2023-05-13T16:13:25.875Z,3.55
2023-05-13T16:16:12.088Z,4.43
2023-05-13T16:18:58.664Z,4.28
2023-05-13T16:21:45.773Z,5.63
2023-05-13T16:24:32.549Z,9.32
2023-05-13T16:27:20.720Z,3.47
2023-05-13T16:30:10.396Z,4.18
2023-05-13T16:32:57.269Z,4.32
2023-05-13T16:35:43.426Z,5.43
2023-05-13T16:38:30.434Z,4.55
2023-05-13T16:41:16.808Z,5.90
2023-05-13T16:44:04.665Z,3.95
2023-05-13T16:46:51.202Z,4.82
2023-05-13T16:49:37.927Z,3.58
2023-05-13T16:52:25.502Z,7.00
2023-05-13T16:55:13.888Z,5.55
2023-05-13T16:58:01.436Z,5.70
2023-05-13T17:00:49.368Z,3.90
2023-05-13T17:03:36.647Z,3.95
2023-05-13T17:06:22.944Z,6.65
2023-05-13T17:09:09.603Z,4.15
2023-05-13T17:11:56.583Z,5.53
2023-05-13T17:14:42.955Z,4.28
2023-05-13T17:17:30.836Z,3.95
2023-05-13T17:20:19.543Z,4.47
2023-05-13T17:23:06.497Z,5.05
2023-05-13T17:25:52.979Z,3.80
2023-05-13T17:28:40.141Z,4.57
2023-05-13T17:31:26.629Z,3.20
2023-05-13T17:34:14.756Z,2.80
2023-05-13T17:37:01.240Z,3.95
2023-05-13T17:39:47.633Z,2.83
2023-05-13T17:42:34.098Z,2.95
2023-05-13T17:45:20.886Z,2.83
2023-05-13T17:48:07.829Z,4.05
2023-05-13T17:50:56.000Z,2.70
2023-05-13T17:53:42.741Z,3.38
2023-05-13T17:56:29.189Z,2.70
2023-05-13T17:59:15.841Z,5.03
2023-05-13T18:02:02.341Z,4.32
2023-05-13T18:04:48.564Z,4.55
2023-05-13T18:07:36.727Z,3.55
2023-05-13T18:10:23.895Z,2.63
2023-05-13T18:13:10.706Z,2.83
2023-05-13T18:15:57.081Z,3.35
2023-05-13T18:18:43.871Z,3.55
2023-05-13T18:21:31.626Z,3.20
2023-05-13T18:24:19.779Z,5.80
2023-05-13T18:27:06.658Z,2.92
2023-05-13T18:29:53.593Z,5.97
2023-05-13T18:32:40.095Z,2.83
2023-05-13T18:35:26.623Z,4.10
2023-05-13T18:38:12.977Z,4.05
2023-05-13T18:41:03.242Z,4.93
2023-05-13T18:43:50.108Z,4.93
2023-05-13T18:46:36.937Z,4.07
2023-05-13T18:49:27.338Z,3.10
2023-05-13T18:52:13.964Z,5.00
2023-05-13T18:55:03.469Z,5.82
2023-05-13T18:57:51.488Z,3.60
2023-05-13T19:00:38.377Z,5.00
2023-05-13T19:03:26.850Z,5.28
2023-05-13T19:06:13.761Z,6.05
2023-05-13T19:09:00.404Z,4.88
2023-05-13T19:11:46.925Z,3.80
2023-05-13T19:14:34.852Z,3.38
2023-05-13T19:17:21.579Z,4.93
2023-05-13T19:20:09.578Z,3.78
2023-05-13T19:22:56.250Z,4.55
2023-05-13T19:25:43.083Z,4.38
2023-05-13T19:28:30.439Z,5.45
2023-05-13T19:31:18.130Z,4.93
2023-05-13T19:34:04.529Z,4.90
2023-05-13T19:36:51.083Z,6.95
2023-05-13T19:39:38.790Z,6.57
2023-05-13T19:42:25.389Z,8.52
2023-05-13T19:45:12.437Z,5.85
2023-05-13T19:48:00.635Z,5.13
2023-05-13T19:50:47.237Z,6.90
2023-05-13T19:53:33.669Z,5.10
2023-05-13T19:56:20.033Z,5.65
2023-05-13T19:59:06.386Z,6.18
2023-05-13T20:01:52.776Z,6.47
2023-05-13T20:04:41.045Z,8.90
2023-05-13T20:07:27.736Z,8.25
2023-05-13T20:10:14.182Z,8.07
2023-05-13T20:13:01.574Z,7.82
2023-05-13T20:15:48.379Z,8.27
2023-05-13T20:18:35.210Z,6.18
2023-05-13T20:21:23.423Z,6.72
2023-05-13T20:24:09.959Z,7.15
2023-05-13T20:26:56.926Z,7.15
2023-05-13T20:29:44.909Z,5.82
2023-05-13T20:32:31.434Z,6.63
2023-05-13T20:35:18.011Z,9.93
2023-05-13T20:38:05.944Z,5.63
2023-05-13T20:40:52.255Z,6.13
2023-05-13T20:43:38.524Z,6.53
2023-05-13T20:46:25.217Z,5.60
2023-05-13T20:49:12.980Z,6.22
2023-05-13T20:52:03.275Z,6.18
2023-05-13T20:54:50.987Z,7.05
2023-05-13T20:57:37.578Z,6.35
2023-05-13T21:00:24.503Z,6.68
2023-05-13T21:03:11.563Z,6.40
2023-05-13T21:05:58.292Z,5.85
2023-05-13T21:08:47.692Z,6.28
2023-05-13T21:11:35.559Z,8.82
2023-05-13T21:14:22.156Z,7.15
2023-05-13T21:19:55.085Z,6.43
2023-05-13T21:22:41.628Z,7.05
2023-05-13T21:25:27.963Z,8.88
2023-05-13T21:28:15.802Z,7.45
2023-05-13T21:31:02.387Z,7.22
2023-05-13T21:33:49.988Z,6.28
2023-05-13T21:36:38.885Z,5.65
2023-05-13T21:39:25.717Z,7.75
2023-05-13T21:42:11.950Z,6.07
2023-05-13T21:44:59.999Z,6.55
2023-05-13T21:47:47.112Z,8.88
2023-05-13T21:50:33.764Z,7.55
2023-05-13T21:53:22.337Z,7.65
2023-05-13T21:56:11.491Z,8.38
2023-05-13T21:58:57.829Z,8.45
2023-05-13T22:01:45.942Z,7.70
2023-05-13T22:04:32.634Z,8.77
2023-05-13T22:07:19.391Z,7.57
2023-05-13T22:10:06.752Z,6.88
2023-05-13T22:12:54.182Z,6.80
2023-05-13T22:15:41.107Z,7.88
2023-05-13T22:18:28.969Z,7.30
2023-05-13T22:21:15.576Z,10.07
2023-05-13T22:24:01.988Z,7.53
2023-05-13T22:26:48.636Z,7.47
2023-05-13T22:29:34.957Z,11.00
2023-05-13T22:32:21.407Z,9.10
2023-05-13T22:35:10.553Z,10.17
2023-05-13T22:37:57.400Z,8.23
2023-05-13T22:40:43.901Z,7.00
2023-05-13T22:43:30.575Z,7.70
2023-05-13T22:46:17.546Z,9.50
2023-05-13T22:49:04.621Z,8.23
2023-05-13T22:51:52.478Z,8.43
2023-05-13T22:54:39.145Z,8.20
2023-05-13T22:57:26.608Z,8.90
2023-05-13T23:00:14.374Z,7.68
2023-05-13T23:03:00.979Z,8.80
2023-05-13T23:05:47.319Z,8.00
2023-05-13T23:08:35.473Z,8.40
2023-05-13T23:11:22.300Z,8.55
2023-05-13T23:14:09.304Z,7.82
2023-05-13T23:16:56.080Z,8.10
2023-05-13T23:19:42.511Z,10.93
2023-05-13T23:22:29.454Z,9.43
2023-05-13T23:25:17.390Z,7.70
2023-05-13T23:28:04.161Z,7.90
2023-05-13T23:30:53.879Z,8.73
2023-05-13T23:33:40.239Z,7.80
2023-05-13T23:36:26.705Z,9.63
2023-05-13T23:39:12.997Z,8.13
2023-05-13T23:42:00.818Z,7.63
2023-05-13T23:44:47.217Z,8.60
2023-05-13T23:47:33.944Z,10.17
2023-05-13T23:50:20.794Z,8.23
2023-05-13T23:53:07.412Z,9.63
2023-05-13T23:55:54.194Z,8.33
2023-05-13T23:58:42.073Z,7.67
